Terminal Aerodrome Forecast
Issued by NWS

Current Version | Previous Version | Graphics & Text | Print | Product List | Glossary On
Versions: 1 2 3 4 5 6 7 8 9 10 11 12 13 14 15 16 17 18 19 20 21 22
977
FTUS41 KPBZ 190520
TAFMGW
TAF
KMGW 190520Z 1906/2006 14010KT P6SM BKN250 WS020/19035KT
     FM191000 16009KT P6SM -RA OVC015 WS020/21045KT
     FM192000 18012KT P6SM BKN050 WS020/21045KT
     FM192300 20009KT P6SM BKN100=

USA.gov is the U.S. government's official web portal to all federal, state and local government web resources and services.